sim
Sign-in with your pilot id or email,
or register
Callsign
Passwort

Schedule Details

Flight Number: OEO8074
Departure: Vienna International Airport (LOWW) at 04:00
Arrival: Fuerteventura Airport (GCFV) at 09:30

Weather Information
Getting current METAR information for LOWW 172250Z 19003KT 160V240 CAVOK 20/14 Q1014 NOSIG
Getting current METAR information for GCFV 172300Z AUTO 03003KT 010V070 9000 4200S NSC 23/20 Q1014

Schedule Frequency

Route Map